sensor_id;sensor_type;location;lat;lon;timestamp;pressure;altitude;pressure_sealevel;temperature;humidity
9538;BME280;4807;48.024;11.726;2023-02-17T00:00:09;95844.72;;;7.52;49.46
9538;BME280;4807;48.024;11.726;2023-02-17T00:03:18;95840.94;;;7.63;48.91
9538;BME280;4807;48.024;11.726;2023-02-17T00:06:29;95839.28;;;7.54;49.50
9538;BME280;4807;48.024;11.726;2023-02-17T00:09:38;95830.19;;;7.64;48.63
9538;BME280;4807;48.024;11.726;2023-02-17T00:12:46;95834.78;;;7.62;48.52
9538;BME280;4807;48.024;11.726;2023-02-17T00:15:55;95824.72;;;7.66;48.30
9538;BME280;4807;48.024;11.726;2023-02-17T00:19:04;95833.19;;;7.70;48.49
9538;BME280;4807;48.024;11.726;2023-02-17T00:22:31;95829.38;;;7.72;47.97
9538;BME280;4807;48.024;11.726;2023-02-17T00:25:39;95831.69;;;7.67;48.82
9538;BME280;4807;48.024;11.726;2023-02-17T00:28:48;95834.78;;;7.62;48.47
9538;BME280;4807;48.024;11.726;2023-02-17T00:31:57;95836.34;;;7.73;47.41
9538;BME280;4807;48.024;11.726;2023-02-17T00:35:06;95836.69;;;7.78;47.63
9538;BME280;4807;48.024;11.726;2023-02-17T00:38:14;95831.56;;;7.77;47.37
9538;BME280;4807;48.024;11.726;2023-02-17T00:41:24;95828.22;;;7.75;47.38
9538;BME280;4807;48.024;11.726;2023-02-17T00:44:36;95827.41;;;7.82;46.50
9538;BME280;4807;48.024;11.726;2023-02-17T00:47:45;95833.53;;;7.75;47.43
9538;BME280;4807;48.024;11.726;2023-02-17T00:50:56;95833.00;;;7.71;47.39
9538;BME280;4807;48.024;11.726;2023-02-17T00:54:05;95833.84;;;7.80;47.38
9538;BME280;4807;48.024;11.726;2023-02-17T00:57:13;95833.84;;;7.80;47.03
9538;BME280;4807;48.024;11.726;2023-02-17T01:00:22;95830.88;;;7.83;46.46
9538;BME280;4807;48.024;11.726;2023-02-17T01:03:33;95836.03;;;7.84;47.01
9538;BME280;4807;48.024;11.726;2023-02-17T01:06:42;95827.75;;;7.87;46.63
9538;BME280;4807;48.024;11.726;2023-02-17T01:09:50;95831.72;;;7.83;46.71
9538;BME280;4807;48.024;11.726;2023-02-17T01:12:58;95826.59;;;7.90;46.55
9538;BME280;4807;48.024;11.726;2023-02-17T01:16:16;95823.78;;;7.83;46.49
9538;BME280;4807;48.024;11.726;2023-02-17T01:19:25;95826.41;;;7.83;46.93
9538;BME280;4807;48.024;11.726;2023-02-17T01:22:34;95817.31;;;7.78;47.23
9538;BME280;4807;48.024;11.726;2023-02-17T01:25:45;95813.97;;;7.68;47.04
9538;BME280;4807;48.024;11.726;2023-02-17T01:28:55;95822.59;;;7.78;46.82
9538;BME280;4807;48.024;11.726;2023-02-17T01:32:03;95809.78;;;7.57;47.81
9538;BME280;4807;48.024;11.726;2023-02-17T01:35:13;95817.06;;;7.55;47.50
9538;BME280;4807;48.024;11.726;2023-02-17T01:38:21;95817.22;;;7.45;48.18
9538;BME280;4807;48.024;11.726;2023-02-17T01:41:29;95825.97;;;7.38;47.72
9538;BME280;4807;48.024;11.726;2023-02-17T01:45:37;95809.66;;;7.24;48.36
9538;BME280;4807;48.024;11.726;2023-02-17T01:48:50;95813.63;;;7.20;48.28
9538;BME280;4807;48.024;11.726;2023-02-17T01:52:07;95806.91;;;7.00;49.13
9538;BME280;4807;48.024;11.726;2023-02-17T01:55:19;95808.75;;;7.08;48.62
9538;BME280;4807;48.024;11.726;2023-02-17T01:58:30;95801.34;;;7.11;48.29
9538;BME280;4807;48.024;11.726;2023-02-17T02:01:39;95802.97;;;7.04;48.64
9538;BME280;4807;48.024;11.726;2023-02-17T02:04:51;95797.69;;;7.04;49.21
9538;BME280;4807;48.024;11.726;2023-02-17T02:08:01;95794.13;;;7.21;48.82
9538;BME280;4807;48.024;11.726;2023-02-17T02:16:09;95791.16;;;7.33;48.13
9538;BME280;4807;48.024;11.726;2023-02-17T02:19:56;95794.66;;;7.41;48.33
9538;BME280;4807;48.024;11.726;2023-02-17T02:23:49;95795.84;;;7.55;47.47
9538;BME280;4807;48.024;11.726;2023-02-17T02:27:33;95795.22;;;7.53;47.94
9538;BME280;4807;48.024;11.726;2023-02-17T02:31:22;95794.03;;;7.55;47.88
9538;BME280;4807;48.024;11.726;2023-02-17T02:34:44;95801.97;;;7.55;47.61
9538;BME280;4807;48.024;11.726;2023-02-17T02:38:02;95798.84;;;7.52;47.63
9538;BME280;4807;48.024;11.726;2023-02-17T02:41:20;95801.16;;;7.55;47.72
9538;BME280;4807;48.024;11.726;2023-02-17T02:44:30;95806.81;;;7.60;47.65
9538;BME280;4807;48.024;11.726;2023-02-17T02:47:44;95803.56;;;7.82;47.27
9538;BME280;4807;48.024;11.726;2023-02-17T02:51:15;95805.88;;;7.77;47.05
9538;BME280;4807;48.024;11.726;2023-02-17T02:54:37;95803.66;;;7.64;48.14
9538;BME280;4807;48.024;11.726;2023-02-17T02:57:56;95797.91;;;7.69;48.00
9538;BME280;4807;48.024;11.726;2023-02-17T03:01:16;95795.88;;;7.63;48.75
9538;BME280;4807;48.024;11.726;2023-02-17T03:04:31;95792.91;;;7.66;48.04
9538;BME280;4807;48.024;11.726;2023-02-17T03:07:53;95791.59;;;7.62;48.76
9538;BME280;4807;48.024;11.726;2023-02-17T03:11:04;95792.41;;;7.62;48.79
9538;BME280;4807;48.024;11.726;2023-02-17T03:14:18;95786.31;;;7.78;47.65
9538;BME280;4807;48.024;11.726;2023-02-17T03:17:30;95782.63;;;7.63;48.45
9538;BME280;4807;48.024;11.726;2023-02-17T03:20:45;95781.00;;;7.62;48.00
9538;BME280;4807;48.024;11.726;2023-02-17T03:23:57;95782.28;;;7.58;48.98
9538;BME280;4807;48.024;11.726;2023-02-17T03:27:05;95785.25;;;7.55;48.29
9538;BME280;4807;48.024;11.726;2023-02-17T03:30:14;95776.69;;;7.61;48.25
9538;BME280;4807;48.024;11.726;2023-02-17T03:33:22;95781.31;;;7.59;48.26
9538;BME280;4807;48.024;11.726;2023-02-17T03:36:31;95780.28;;;7.52;48.98
9538;BME280;4807;48.024;11.726;2023-02-17T03:39:41;95778.97;;;7.56;48.74
9538;BME280;4807;48.024;11.726;2023-02-17T03:42:49;95774.66;;;7.55;48.64
9538;BME280;4807;48.024;11.726;2023-02-17T03:45:57;95776.19;;;7.65;48.13
9538;BME280;4807;48.024;11.726;2023-02-17T03:49:06;95772.69;;;7.65;48.73
9538;BME280;4807;48.024;11.726;2023-02-17T03:52:14;95775.34;;;7.65;48.63
9538;BME280;4807;48.024;11.726;2023-02-17T03:55:23;95768.75;;;7.77;48.90
9538;BME280;4807;48.024;11.726;2023-02-17T03:58:31;95770.88;;;7.74;48.34
9538;BME280;4807;48.024;11.726;2023-02-17T04:01:40;95774.34;;;7.66;48.59
9538;BME280;4807;48.024;11.726;2023-02-17T04:04:48;95767.25;;;7.66;49.32
9538;BME280;4807;48.024;11.726;2023-02-17T04:07:56;95758.78;;;7.63;48.68
9538;BME280;4807;48.024;11.726;2023-02-17T04:11:07;95761.63;;;7.78;47.66
9538;BME280;4807;48.024;11.726;2023-02-17T04:14:16;95764.44;;;7.76;48.40
9538;BME280;4807;48.024;11.726;2023-02-17T04:17:24;95754.50;;;7.78;48.05
9538;BME280;4807;48.024;11.726;2023-02-17T04:20:32;95756.50;;;7.76;49.15
9538;BME280;4807;48.024;11.726;2023-02-17T04:23:40;95761.13;;;7.74;48.55
9538;BME280;4807;48.024;11.726;2023-02-17T04:26:50;95763.09;;;7.80;48.74
9538;BME280;4807;48.024;11.726;2023-02-17T04:29:58;95760.47;;;7.88;48.32
9538;BME280;4807;48.024;11.726;2023-02-17T04:33:07;95756.81;;;7.81;49.01
9538;BME280;4807;48.024;11.726;2023-02-17T04:36:15;95756.34;;;7.86;48.71
9538;BME280;4807;48.024;11.726;2023-02-17T04:39:24;95752.88;;;7.93;48.24
9538;BME280;4807;48.024;11.726;2023-02-17T04:42:34;95755.53;;;8.01;48.66
9538;BME280;4807;48.024;11.726;2023-02-17T04:45:42;95750.38;;;8.00;48.72
9538;BME280;4807;48.024;11.726;2023-02-17T04:48:50;95749.88;;;8.04;48.98
9538;BME280;4807;48.024;11.726;2023-02-17T04:51:58;95759.47;;;8.14;48.20
9538;BME280;4807;48.024;11.726;2023-02-17T04:55:07;95748.88;;;8.05;49.07
9538;BME280;4807;48.024;11.726;2023-02-17T04:58:18;95763.47;;;8.10;48.40
9538;BME280;4807;48.024;11.726;2023-02-17T05:01:26;95753.50;;;8.20;48.49
9538;BME280;4807;48.024;11.726;2023-02-17T05:04:35;95753.50;;;8.20;48.52
9538;BME280;4807;48.024;11.726;2023-02-17T05:07:44;95736.59;;;8.29;48.20
9538;BME280;4807;48.024;11.726;2023-02-17T05:10:53;95737.59;;;8.36;47.86
9538;BME280;4807;48.024;11.726;2023-02-17T05:14:02;95729.63;;;8.20;48.89
9538;BME280;4807;48.024;11.726;2023-02-17T05:17:10;95730.31;;;8.22;49.38
9538;BME280;4807;48.024;11.726;2023-02-17T05:20:19;95715.75;;;8.34;48.20
9538;BME280;4807;48.024;11.726;2023-02-17T05:23:27;95718.53;;;8.40;48.09
9538;BME280;4807;48.024;11.726;2023-02-17T05:26:36;95716.38;;;8.44;47.52
9538;BME280;4807;48.024;11.726;2023-02-17T05:29:46;95714.34;;;8.54;47.31
9538;BME280;4807;48.024;11.726;2023-02-17T05:32:54;95717.88;;;8.47;47.99
9538;BME280;4807;48.024;11.726;2023-02-17T05:36:08;95718.69;;;8.55;47.09
9538;BME280;4807;48.024;11.726;2023-02-17T05:39:17;95719.34;;;8.57;47.74
9538;BME280;4807;48.024;11.726;2023-02-17T05:42:25;95716.00;;;8.63;47.55
9538;BME280;4807;48.024;11.726;2023-02-17T05:45:36;95723.63;;;8.66;46.13
9538;BME280;4807;48.024;11.726;2023-02-17T05:48:44;95735.38;;;8.80;46.44
9538;BME280;4807;48.024;11.726;2023-02-17T05:51:54;95728.22;;;8.89;45.73
9538;BME280;4807;48.024;11.726;2023-02-17T05:55:03;95730.31;;;9.01;45.42
9538;BME280;4807;48.024;11.726;2023-02-17T05:58:11;95734.78;;;9.01;45.67
9538;BME280;4807;48.024;11.726;2023-02-17T06:01:20;95736.13;;;9.05;45.28
9538;BME280;4807;48.024;11.726;2023-02-17T06:04:29;95735.59;;;9.09;45.49
9538;BME280;4807;48.024;11.726;2023-02-17T06:07:37;95734.44;;;9.04;45.65
9538;BME280;4807;48.024;11.726;2023-02-17T06:10:45;95738.63;;;8.98;46.18
9538;BME280;4807;48.024;11.726;2023-02-17T06:13:53;95731.53;;;8.91;45.93
9538;BME280;4807;48.024;11.726;2023-02-17T06:17:03;95736.84;;;8.91;46.31
9538;BME280;4807;48.024;11.726;2023-02-17T06:20:12;95739.47;;;8.99;46.48
9538;BME280;4807;48.024;11.726;2023-02-17T06:23:20;95736.28;;;9.03;46.13
9538;BME280;4807;48.024;11.726;2023-02-17T06:26:28;95738.25;;;9.09;46.40
9538;BME280;4807;48.024;11.726;2023-02-17T06:29:36;95742.69;;;9.17;46.06
9538;BME280;4807;48.024;11.726;2023-02-17T06:32:46;95735.03;;;9.22;46.22
9538;BME280;4807;48.024;11.726;2023-02-17T06:35:54;95744.63;;;9.31;45.51
9538;BME280;4807;48.024;11.726;2023-02-17T06:39:03;95743.22;;;9.43;45.40
9538;BME280;4807;48.024;11.726;2023-02-17T06:42:11;95741.06;;;9.47;47.47
9538;BME280;4807;48.024;11.726;2023-02-17T06:45:19;95742.84;;;9.54;48.33
9538;BME280;4807;48.024;11.726;2023-02-17T06:48:29;95754.00;;;9.50;48.96
9538;BME280;4807;48.024;11.726;2023-02-17T06:51:39;95752.47;;;9.55;49.01
9538;BME280;4807;48.024;11.726;2023-02-17T06:54:47;95752.38;;;9.72;48.14
9538;BME280;4807;48.024;11.726;2023-02-17T06:57:56;95744.03;;;9.75;48.88
9538;BME280;4807;48.024;11.726;2023-02-17T07:01:04;95748.97;;;9.86;48.10
9538;BME280;4807;48.024;11.726;2023-02-17T07:04:16;95744.97;;;9.82;49.04
9538;BME280;4807;48.024;11.726;2023-02-17T07:07:24;95749.19;;;9.99;48.75
9538;BME280;4807;48.024;11.726;2023-02-17T07:10:33;95739.50;;;10.06;48.17
9538;BME280;4807;48.024;11.726;2023-02-17T07:13:42;95734.72;;;10.02;48.42
9538;BME280;4807;48.024;11.726;2023-02-17T07:16:51;95748.78;;;10.10;48.84
9538;BME280;4807;48.024;11.726;2023-02-17T07:20:00;95744.44;;;10.17;47.93
9538;BME280;4807;48.024;11.726;2023-02-17T07:23:09;95745.09;;;10.19;48.72
9538;BME280;4807;48.024;11.726;2023-02-17T07:26:17;95743.19;;;10.28;48.71
9538;BME280;4807;48.024;11.726;2023-02-17T07:29:25;95746.94;;;10.33;47.97
9538;BME280;4807;48.024;11.726;2023-02-17T07:32:34;95735.47;;;10.33;47.96
9538;BME280;4807;48.024;11.726;2023-02-17T07:35:43;95745.69;;;10.44;48.06
9538;BME280;4807;48.024;11.726;2023-02-17T07:38:52;95736.25;;;10.71;47.18
9538;BME280;4807;48.024;11.726;2023-02-17T07:42:00;95737.75;;;11.03;46.39
9538;BME280;4807;48.024;11.726;2023-02-17T07:45:11;95737.66;;;11.26;46.67
9538;BME280;4807;48.024;11.726;2023-02-17T07:48:20;95743.78;;;11.41;46.63
9538;BME280;4807;48.024;11.726;2023-02-17T07:51:29;95746.78;;;11.67;45.96
9538;BME280;4807;48.024;11.726;2023-02-17T07:54:38;95740.69;;;11.73;46.05
9538;BME280;4807;48.024;11.726;2023-02-17T07:57:46;95746.69;;;11.75;45.54
9538;BME280;4807;48.024;11.726;2023-02-17T08:00:54;95750.47;;;11.66;46.82
9538;BME280;4807;48.024;11.726;2023-02-17T08:04:02;95747.91;;;11.58;46.19
9538;BME280;4807;48.024;11.726;2023-02-17T08:07:14;95748.38;;;11.47;46.51
9538;BME280;4807;48.024;11.726;2023-02-17T08:10:22;95754.47;;;11.41;47.24
9538;BME280;4807;48.024;11.726;2023-02-17T08:13:47;95768.97;;;11.38;47.87
9538;BME280;4807;48.024;11.726;2023-02-17T08:16:56;95757.31;;;11.39;47.89
9538;BME280;4807;48.024;11.726;2023-02-17T08:20:06;95757.19;;;11.47;47.84
9538;BME280;4807;48.024;11.726;2023-02-17T08:23:18;95751.75;;;11.56;47.93
9538;BME280;4807;48.024;11.726;2023-02-17T08:26:27;95752.72;;;11.69;48.84
9538;BME280;4807;48.024;11.726;2023-02-17T08:29:35;95758.19;;;11.61;52.21
9538;BME280;4807;48.024;11.726;2023-02-17T08:32:44;95759.78;;;11.41;54.60
9538;BME280;4807;48.024;11.726;2023-02-17T08:35:53;95753.81;;;11.39;52.84
9538;BME280;4807;48.024;11.726;2023-02-17T08:39:04;95766.03;;;11.48;50.52
9538;BME280;4807;48.024;11.726;2023-02-17T08:42:13;95757.25;;;11.69;50.95
9538;BME280;4807;48.024;11.726;2023-02-17T08:45:21;95754.31;;;11.78;49.90
9538;BME280;4807;48.024;11.726;2023-02-17T08:48:29;95750.75;;;11.93;48.79
9538;BME280;4807;48.024;11.726;2023-02-17T08:51:38;95762.47;;;12.13;49.55
9538;BME280;4807;48.024;11.726;2023-02-17T08:54:48;95754.50;;;12.62;48.27
9538;BME280;4807;48.024;11.726;2023-02-17T08:57:58;95766.44;;;12.66;48.30
9538;BME280;4807;48.024;11.726;2023-02-17T09:01:07;95766.97;;;12.55;47.88
9538;BME280;4807;48.024;11.726;2023-02-17T09:04:15;95760.34;;;12.51;48.88
9538;BME280;4807;48.024;11.726;2023-02-17T09:07:24;95772.34;;;12.61;48.23
9538;BME280;4807;48.024;11.726;2023-02-17T09:10:34;95761.81;;;12.53;49.66
9538;BME280;4807;48.024;11.726;2023-02-17T09:13:43;95768.94;;;12.46;49.63
9538;BME280;4807;48.024;11.726;2023-02-17T09:16:54;95767.34;;;12.52;49.70
9538;BME280;4807;48.024;11.726;2023-02-17T09:20:02;95780.28;;;12.48;49.12
9538;BME280;4807;48.024;11.726;2023-02-17T09:23:28;95787.25;;;12.28;50.98
9538;BME280;4807;48.024;11.726;2023-02-17T09:26:38;95786.00;;;12.24;51.48
9538;BME280;4807;48.024;11.726;2023-02-17T09:29:47;95785.66;;;12.34;51.38
9538;BME280;4807;48.024;11.726;2023-02-17T09:32:55;95795.78;;;12.17;51.19
9538;BME280;4807;48.024;11.726;2023-02-17T09:36:06;95783.94;;;12.26;51.77
9538;BME280;4807;48.024;11.726;2023-02-17T09:39:15;95791.47;;;12.16;55.17
9538;BME280;4807;48.024;11.726;2023-02-17T09:42:26;95790.66;;;12.01;54.45
9538;BME280;4807;48.024;11.726;2023-02-17T09:45:35;95786.03;;;11.88;55.31
9538;BME280;4807;48.024;11.726;2023-02-17T09:48:47;95799.13;;;12.04;54.84
9538;BME280;4807;48.024;11.726;2023-02-17T09:52:03;95808.88;;;12.12;53.76
9538;BME280;4807;48.024;11.726;2023-02-17T09:55:19;95795.59;;;12.18;54.71
9538;BME280;4807;48.024;11.726;2023-02-17T09:58:36;95791.34;;;12.24;54.25
9538;BME280;4807;48.024;11.726;2023-02-17T10:01:47;95804.44;;;12.40;52.56
9538;BME280;4807;48.024;11.726;2023-02-17T10:05:02;95809.50;;;12.35;52.33
9538;BME280;4807;48.024;11.726;2023-02-17T10:08:18;95797.19;;;12.34;53.63
9538;BME280;4807;48.024;11.726;2023-02-17T10:11:33;95795.09;;;12.30;53.26
9538;BME280;4807;48.024;11.726;2023-02-17T10:14:48;95794.13;;;12.37;52.18
9538;BME280;4807;48.024;11.726;2023-02-17T10:18:09;95789.69;;;12.44;53.69
9538;BME280;4807;48.024;11.726;2023-02-17T10:21:25;95803.03;;;12.44;52.44
9538;BME280;4807;48.024;11.726;2023-02-17T10:24:34;95798.44;;;12.59;52.22
9538;BME280;4807;48.024;11.726;2023-02-17T10:27:49;95799.34;;;12.94;51.24
9538;BME280;4807;48.024;11.726;2023-02-17T10:31:07;95801.59;;;13.53;50.75
9538;BME280;4807;48.024;11.726;2023-02-17T10:34:33;95796.38;;;13.86;48.55
9538;BME280;4807;48.024;11.726;2023-02-17T10:37:52;95786.66;;;13.79;48.91
9538;BME280;4807;48.024;11.726;2023-02-17T10:41:08;95784.19;;;13.77;48.58
9538;BME280;4807;48.024;11.726;2023-02-17T10:44:22;95780.72;;;13.35;49.02
9538;BME280;4807;48.024;11.726;2023-02-17T10:47:35;95781.16;;;13.11;50.09
9538;BME280;4807;48.024;11.726;2023-02-17T10:50:47;95769.88;;;13.16;50.92
9538;BME280;4807;48.024;11.726;2023-02-17T10:54:01;95768.19;;;13.43;49.30
9538;BME280;4807;48.024;11.726;2023-02-17T10:57:13;95780.28;;;13.38;49.53
9538;BME280;4807;48.024;11.726;2023-02-17T11:00:24;95775.44;;;13.55;48.23
9538;BME280;4807;48.024;11.726;2023-02-17T11:03:34;95780.09;;;13.81;47.78
9538;BME280;4807;48.024;11.726;2023-02-17T11:06:48;95765.66;;;13.75;47.56
9538;BME280;4807;48.024;11.726;2023-02-17T11:10:01;95765.88;;;13.87;47.96
9538;BME280;4807;48.024;11.726;2023-02-17T11:13:32;95758.56;;;14.16;47.86
9538;BME280;4807;48.024;11.726;2023-02-17T11:16:44;95768.00;;;13.98;46.49
9538;BME280;4807;48.024;11.726;2023-02-17T11:19:58;95756.25;;;13.93;47.21
9538;BME280;4807;48.024;11.726;2023-02-17T11:23:22;95749.16;;;13.72;47.18
9538;BME280;4807;48.024;11.726;2023-02-17T11:26:35;95757.25;;;13.85;48.12
9538;BME280;4807;48.024;11.726;2023-02-17T11:29:43;95766.97;;;13.99;47.38
9538;BME280;4807;48.024;11.726;2023-02-17T11:32:52;95744.50;;;13.94;47.55
9538;BME280;4807;48.024;11.726;2023-02-17T11:36:05;95757.66;;;13.82;48.27
9538;BME280;4807;48.024;11.726;2023-02-17T11:39:19;95751.34;;;14.09;48.49
9538;BME280;4807;48.024;11.726;2023-02-17T11:42:31;95760.78;;;14.05;48.66
9538;BME280;4807;48.024;11.726;2023-02-17T11:45:48;95744.28;;;13.95;48.35
9538;BME280;4807;48.024;11.726;2023-02-17T11:50:00;95744.72;;;14.05;48.20
9538;BME280;4807;48.024;11.726;2023-02-17T11:53:29;95731.97;;;14.14;48.83
9538;BME280;4807;48.024;11.726;2023-02-17T11:56:58;95736.38;;;14.48;47.94
9538;BME280;4807;48.024;11.726;2023-02-17T12:00:16;95734.06;;;14.32;47.96
9538;BME280;4807;48.024;11.726;2023-02-17T12:03:50;95735.69;;;14.20;48.17
9538;BME280;4807;48.024;11.726;2023-02-17T12:07:30;95724.78;;;14.28;48.75
9538;BME280;4807;48.024;11.726;2023-02-17T12:11:03;95725.16;;;14.05;48.82
9538;BME280;4807;48.024;11.726;2023-02-17T12:14:44;95714.00;;;13.95;48.68
9538;BME280;4807;48.024;11.726;2023-02-17T12:18:09;95715.81;;;13.74;49.38
9538;BME280;4807;48.024;11.726;2023-02-17T12:21:38;95720.03;;;14.10;48.78
9538;BME280;4807;48.024;11.726;2023-02-17T12:25:14;95720.44;;;14.00;49.01
9538;BME280;4807;48.024;11.726;2023-02-17T12:28:56;95703.09;;;13.83;49.03
9538;BME280;4807;48.024;11.726;2023-02-17T12:32:32;95710.50;;;13.88;49.49
9538;BME280;4807;48.024;11.726;2023-02-17T12:35:47;95698.56;;;13.90;48.36
9538;BME280;4807;48.024;11.726;2023-02-17T12:39:05;95708.06;;;14.19;48.69
9538;BME280;4807;48.024;11.726;2023-02-17T12:42:24;95706.44;;;14.38;48.67
9538;BME280;4807;48.024;11.726;2023-02-17T12:45:41;95697.41;;;14.39;47.09
9538;BME280;4807;48.024;11.726;2023-02-17T12:48:55;95692.00;;;13.99;48.78
9538;BME280;4807;48.024;11.726;2023-02-17T12:52:12;95675.09;;;14.05;49.29
9538;BME280;4807;48.024;11.726;2023-02-17T12:55:29;95688.28;;;14.00;49.23
9538;BME280;4807;48.024;11.726;2023-02-17T12:58:42;95698.22;;;14.26;48.71
9538;BME280;4807;48.024;11.726;2023-02-17T13:01:58;95696.97;;;14.22;49.22
9538;BME280;4807;48.024;11.726;2023-02-17T13:05:20;95692.41;;;14.03;50.65
9538;BME280;4807;48.024;11.726;2023-02-17T13:08:39;95690.53;;;13.90;51.61
9538;BME280;4807;48.024;11.726;2023-02-17T13:11:50;95702.69;;;13.93;51.66
9538;BME280;4807;48.024;11.726;2023-02-17T13:15:02;95696.34;;;14.13;51.07
9538;BME280;4807;48.024;11.726;2023-02-17T13:18:27;95710.94;;;14.04;50.87
9538;BME280;4807;48.024;11.726;2023-02-17T13:21:36;95699.19;;;13.92;50.64
9538;BME280;4807;48.024;11.726;2023-02-17T13:24:55;95696.91;;;13.83;51.08
9538;BME280;4807;48.024;11.726;2023-02-17T13:28:33;95676.31;;;13.77;51.41
9538;BME280;4807;48.024;11.726;2023-02-17T13:31:50;95690.28;;;13.65;51.90
9538;BME280;4807;48.024;11.726;2023-02-17T13:35:05;95697.66;;;13.57;52.47
9538;BME280;4807;48.024;11.726;2023-02-17T13:38:29;95690.66;;;13.62;52.16
9538;BME280;4807;48.024;11.726;2023-02-17T13:41:48;95690.47;;;13.64;52.06
9538;BME280;4807;48.024;11.726;2023-02-17T13:45:13;95709.56;;;13.54;51.92
9538;BME280;4807;48.024;11.726;2023-02-17T13:48:44;95702.59;;;13.53;53.02
9538;BME280;4807;48.024;11.726;2023-02-17T13:52:18;95705.88;;;13.55;52.92
9538;BME280;4807;48.024;11.726;2023-02-17T13:55:31;95699.06;;;13.46;53.07
9538;BME280;4807;48.024;11.726;2023-02-17T13:58:41;95693.94;;;13.45;53.59
9538;BME280;4807;48.024;11.726;2023-02-17T14:01:51;95700.13;;;13.52;53.48
9538;BME280;4807;48.024;11.726;2023-02-17T14:05:16;95693.97;;;13.58;53.12
9538;BME280;4807;48.024;11.726;2023-02-17T14:08:35;95690.28;;;13.72;53.21
9538;BME280;4807;48.024;11.726;2023-02-17T14:11:44;95689.44;;;13.65;52.90
9538;BME280;4807;48.024;11.726;2023-02-17T14:14:52;95681.22;;;13.66;52.82
9538;BME280;4807;48.024;11.726;2023-02-17T14:18:12;95691.94;;;13.73;52.94
9538;BME280;4807;48.024;11.726;2023-02-17T14:21:25;95687.41;;;13.67;53.39
9538;BME280;4807;48.024;11.726;2023-02-17T14:24:37;95698.88;;;13.54;53.88
9538;BME280;4807;48.024;11.726;2023-02-17T14:27:47;95711.56;;;13.39;54.20
9538;BME280;4807;48.024;11.726;2023-02-17T14:31:08;95705.91;;;13.14;56.19
9538;BME280;4807;48.024;11.726;2023-02-17T14:34:26;95709.31;;;13.02;56.11
9538;BME280;4807;48.024;11.726;2023-02-17T14:37:35;95705.13;;;12.86;57.09
9538;BME280;4807;48.024;11.726;2023-02-17T14:40:44;95715.78;;;12.79;56.19
9538;BME280;4807;48.024;11.726;2023-02-17T14:43:52;95706.94;;;12.79;56.34
9538;BME280;4807;48.024;11.726;2023-02-17T14:47:03;95713.53;;;12.89;55.64
9538;BME280;4807;48.024;11.726;2023-02-17T14:50:12;95707.84;;;12.99;55.04
9538;BME280;4807;48.024;11.726;2023-02-17T14:53:26;95705.91;;;13.14;54.69
9538;BME280;4807;48.024;11.726;2023-02-17T14:56:43;95704.06;;;13.15;54.64
9538;BME280;4807;48.024;11.726;2023-02-17T14:59:53;95699.28;;;13.10;55.51
9538;BME280;4807;48.024;11.726;2023-02-17T15:03:03;95700.19;;;13.17;54.50
9538;BME280;4807;48.024;11.726;2023-02-17T15:06:14;95702.47;;;13.20;54.18
9538;BME280;4807;48.024;11.726;2023-02-17T15:09:28;95681.84;;;13.14;54.71
9538;BME280;4807;48.024;11.726;2023-02-17T15:12:38;95693.72;;;13.05;54.77
9538;BME280;4807;48.024;11.726;2023-02-17T15:15:47;95702.75;;;13.04;55.62
9538;BME280;4807;48.024;11.726;2023-02-17T15:18:56;95705.38;;;12.97;54.88
9538;BME280;4807;48.024;11.726;2023-02-17T15:22:05;95702.28;;;12.94;55.05
9538;BME280;4807;48.024;11.726;2023-02-17T15:25:17;95704.09;;;12.87;56.06
9538;BME280;4807;48.024;11.726;2023-02-17T15:28:29;95706.13;;;12.85;55.82
9538;BME280;4807;48.024;11.726;2023-02-17T15:31:37;95705.50;;;12.83;55.63
9538;BME280;4807;48.024;11.726;2023-02-17T15:34:52;95712.91;;;12.81;56.13
9538;BME280;4807;48.024;11.726;2023-02-17T15:38:00;95709.41;;;12.80;56.47
9538;BME280;4807;48.024;11.726;2023-02-17T15:41:20;95700.56;;;12.80;55.63
9538;BME280;4807;48.024;11.726;2023-02-17T15:44:49;95700.06;;;12.70;57.09
9538;BME280;4807;48.024;11.726;2023-02-17T15:48:21;95696.09;;;12.59;56.40
9538;BME280;4807;48.024;11.726;2023-02-17T15:51:43;95695.81;;;12.47;57.86
9538;BME280;4807;48.024;11.726;2023-02-17T15:54:57;95694.94;;;12.40;59.63
9538;BME280;4807;48.024;11.726;2023-02-17T15:58:20;95690.13;;;12.29;58.95
9538;BME280;4807;48.024;11.726;2023-02-17T16:01:35;95683.31;;;12.27;59.64
9538;BME280;4807;48.024;11.726;2023-02-17T16:04:46;95681.06;;;12.23;58.38
9538;BME280;4807;48.024;11.726;2023-02-17T16:07:58;95682.88;;;12.23;58.51
9538;BME280;4807;48.024;11.726;2023-02-17T16:11:11;95692.75;;;12.22;58.66
9538;BME280;4807;48.024;11.726;2023-02-17T16:14:23;95688.16;;;12.16;58.60
9538;BME280;4807;48.024;11.726;2023-02-17T16:17:34;95683.41;;;12.12;58.80
9538;BME280;4807;48.024;11.726;2023-02-17T16:20:43;95688.09;;;12.10;58.56
9538;BME280;4807;48.024;11.726;2023-02-17T16:23:51;95689.88;;;12.03;59.59
9538;BME280;4807;48.024;11.726;2023-02-17T16:27:05;95694.22;;;12.04;59.08
9538;BME280;4807;48.024;11.726;2023-02-17T16:30:19;95683.72;;;12.02;59.18
9538;BME280;4807;48.024;11.726;2023-02-17T16:33:29;95679.28;;;11.88;60.08
9538;BME280;4807;48.024;11.726;2023-02-17T16:36:38;95681.72;;;11.83;59.87
9538;BME280;4807;48.024;11.726;2023-02-17T16:39:47;95688.53;;;11.71;60.62
9538;BME280;4807;48.024;11.726;2023-02-17T16:42:55;95699.91;;;11.58;61.15
9538;BME280;4807;48.024;11.726;2023-02-17T16:46:04;95714.91;;;11.44;61.75
9538;BME280;4807;48.024;11.726;2023-02-17T16:49:21;95703.41;;;11.44;61.82
9538;BME280;4807;48.024;11.726;2023-02-17T16:52:34;95708.94;;;11.28;62.83
9538;BME280;4807;48.024;11.726;2023-02-17T16:55:46;95710.16;;;11.25;62.32
9538;BME280;4807;48.024;11.726;2023-02-17T16:58:57;95714.28;;;11.28;62.88
9538;BME280;4807;48.024;11.726;2023-02-17T17:02:22;95710.72;;;11.21;63.22
9538;BME280;4807;48.024;11.726;2023-02-17T17:05:40;95716.22;;;11.19;63.80
9538;BME280;4807;48.024;11.726;2023-02-17T17:08:58;95711.47;;;11.15;63.69
9538;BME280;4807;48.024;11.726;2023-02-17T17:12:09;95704.03;;;11.10;63.98
9538;BME280;4807;48.024;11.726;2023-02-17T17:15:21;95714.22;;;11.06;64.35
9538;BME280;4807;48.024;11.726;2023-02-17T17:18:35;95714.88;;;11.08;63.86
9538;BME280;4807;48.024;11.726;2023-02-17T17:21:50;95708.63;;;11.01;64.36
9538;BME280;4807;48.024;11.726;2023-02-17T17:25:09;95719.66;;;10.98;64.70
9538;BME280;4807;48.024;11.726;2023-02-17T17:28:21;95725.16;;;10.97;64.78